sensor_id;sensor_type;location;lat;lon;timestamp;temperature;humidity
56103;DHT22;41970;48.774;9.280;2022-10-16T00:00:03;17.40;99.90
56103;DHT22;41970;48.774;9.280;2022-10-16T00:02:29;17.20;99.90
56103;DHT22;41970;48.774;9.280;2022-10-16T00:04:55;17.30;99.90
56103;DHT22;41970;48.774;9.280;2022-10-16T00:07:20;17.40;99.90
56103;DHT22;41970;48.774;9.280;2022-10-16T00:09:46;17.40;99.90
56103;DHT22;41970;48.774;9.280;2022-10-16T00:12:12;17.50;99.90
56103;DHT22;41970;48.774;9.280;2022-10-16T00:14:38;17.60;99.90
56103;DHT22;41970;48.774;9.280;2022-10-16T00:17:06;17.60;99.90
56103;DHT22;41970;48.774;9.280;2022-10-16T00:19:32;17.60;99.90
56103;DHT22;41970;48.774;9.280;2022-10-16T00:21:57;17.60;99.90
56103;DHT22;41970;48.774;9.280;2022-10-16T00:24:23;17.60;99.90
56103;DHT22;41970;48.774;9.280;2022-10-16T00:26:50;17.60;99.90
56103;DHT22;41970;48.774;9.280;2022-10-16T00:29:16;17.60;99.90
56103;DHT22;41970;48.774;9.280;2022-10-16T00:31:42;17.60;99.90
56103;DHT22;41970;48.774;9.280;2022-10-16T00:34:08;17.40;99.90
56103;DHT22;41970;48.774;9.280;2022-10-16T00:36:33;17.30;99.90
56103;DHT22;41970;48.774;9.280;2022-10-16T00:38:59;17.40;99.90
56103;DHT22;41970;48.774;9.280;2022-10-16T00:41:27;17.30;99.90
56103;DHT22;41970;48.774;9.280;2022-10-16T00:43:55;17.20;99.90
56103;DHT22;41970;48.774;9.280;2022-10-16T00:46:27;17.20;99.90
56103;DHT22;41970;48.774;9.280;2022-10-16T00:49:04;17.20;99.90
56103;DHT22;41970;48.774;9.280;2022-10-16T00:51:43;17.20;99.90
56103;DHT22;41970;48.774;9.280;2022-10-16T00:54:21;17.20;99.90
56103;DHT22;41970;48.774;9.280;2022-10-16T00:56:49;17.20;99.90
56103;DHT22;41970;48.774;9.280;2022-10-16T00:59:24;17.10;99.90
56103;DHT22;41970;48.774;9.280;2022-10-16T01:01:51;16.90;99.90
56103;DHT22;41970;48.774;9.280;2022-10-16T01:04:18;16.80;99.90
56103;DHT22;41970;48.774;9.280;2022-10-16T01:07:06;16.60;99.90
56103;DHT22;41970;48.774;9.280;2022-10-16T01:12:41;16.60;99.90
56103;DHT22;41970;48.774;9.280;2022-10-16T01:15:25;16.70;99.90
56103;DHT22;41970;48.774;9.280;2022-10-16T01:19:08;16.70;99.90
56103;DHT22;41970;48.774;9.280;2022-10-16T01:29:36;16.60;99.90
56103;DHT22;41970;48.774;9.280;2022-10-16T01:32:15;16.60;99.90
56103;DHT22;41970;48.774;9.280;2022-10-16T01:34:48;16.40;99.90
56103;DHT22;41970;48.774;9.280;2022-10-16T01:37:18;16.30;99.90
56103;DHT22;41970;48.774;9.280;2022-10-16T01:39:47;16.40;99.90
56103;DHT22;41970;48.774;9.280;2022-10-16T01:42:21;16.50;99.90
56103;DHT22;41970;48.774;9.280;2022-10-16T01:44:48;16.60;99.90
56103;DHT22;41970;48.774;9.280;2022-10-16T01:47:17;16.60;99.90
56103;DHT22;41970;48.774;9.280;2022-10-16T01:49:45;16.50;99.90
56103;DHT22;41970;48.774;9.280;2022-10-16T01:52:16;16.40;99.90
56103;DHT22;41970;48.774;9.280;2022-10-16T01:54:46;16.50;99.90
56103;DHT22;41970;48.774;9.280;2022-10-16T01:57:14;16.60;99.90
56103;DHT22;41970;48.774;9.280;2022-10-16T01:59:44;16.60;99.90
56103;DHT22;41970;48.774;9.280;2022-10-16T02:02:11;16.60;99.90
56103;DHT22;41970;48.774;9.280;2022-10-16T02:04:51;16.60;99.90
56103;DHT22;41970;48.774;9.280;2022-10-16T02:07:19;16.60;99.90
56103;DHT22;41970;48.774;9.280;2022-10-16T02:09:45;16.60;99.90
56103;DHT22;41970;48.774;9.280;2022-10-16T02:12:35;16.60;99.90
56103;DHT22;41970;48.774;9.280;2022-10-16T02:15:02;16.70;99.90
56103;DHT22;41970;48.774;9.280;2022-10-16T02:17:28;16.70;99.90
56103;DHT22;41970;48.774;9.280;2022-10-16T02:19:56;16.70;99.90
56103;DHT22;41970;48.774;9.280;2022-10-16T02:22:35;16.70;99.90
56103;DHT22;41970;48.774;9.280;2022-10-16T02:25:29;16.70;99.90
56103;DHT22;41970;48.774;9.280;2022-10-16T02:28:24;16.70;99.90
56103;DHT22;41970;48.774;9.280;2022-10-16T02:30:56;16.80;99.90
56103;DHT22;41970;48.774;9.280;2022-10-16T02:33:25;16.80;99.90
56103;DHT22;41970;48.774;9.280;2022-10-16T02:35:53;16.80;99.90
56103;DHT22;41970;48.774;9.280;2022-10-16T02:38:21;16.80;99.90
56103;DHT22;41970;48.774;9.280;2022-10-16T02:40:48;16.80;99.90
56103;DHT22;41970;48.774;9.280;2022-10-16T02:43:14;16.80;99.90
56103;DHT22;41970;48.774;9.280;2022-10-16T02:45:40;16.90;99.90
56103;DHT22;41970;48.774;9.280;2022-10-16T02:48:06;16.80;99.90
56103;DHT22;41970;48.774;9.280;2022-10-16T02:50:32;16.80;99.90
56103;DHT22;41970;48.774;9.280;2022-10-16T02:52:58;16.90;99.90
56103;DHT22;41970;48.774;9.280;2022-10-16T02:55:23;16.90;99.90
56103;DHT22;41970;48.774;9.280;2022-10-16T02:57:52;16.80;99.90
56103;DHT22;41970;48.774;9.280;2022-10-16T03:00:18;16.80;99.90
56103;DHT22;41970;48.774;9.280;2022-10-16T03:02:44;16.90;99.90
56103;DHT22;41970;48.774;9.280;2022-10-16T03:05:10;16.90;99.90
56103;DHT22;41970;48.774;9.280;2022-10-16T03:07:36;16.90;99.90
56103;DHT22;41970;48.774;9.280;2022-10-16T03:10:02;16.90;99.90
56103;DHT22;41970;48.774;9.280;2022-10-16T03:12:29;16.90;99.90
56103;DHT22;41970;48.774;9.280;2022-10-16T03:14:58;16.90;99.90
56103;DHT22;41970;48.774;9.280;2022-10-16T03:17:24;16.90;99.90
56103;DHT22;41970;48.774;9.280;2022-10-16T03:19:50;16.80;99.90
56103;DHT22;41970;48.774;9.280;2022-10-16T03:22:16;16.70;99.90
56103;DHT22;41970;48.774;9.280;2022-10-16T03:24:42;16.70;99.90
56103;DHT22;41970;48.774;9.280;2022-10-16T03:27:08;16.80;99.90
56103;DHT22;41970;48.774;9.280;2022-10-16T03:29:34;16.80;99.90
56103;DHT22;41970;48.774;9.280;2022-10-16T03:32:00;16.70;99.90
56103;DHT22;41970;48.774;9.280;2022-10-16T03:34:26;16.70;99.90
56103;DHT22;41970;48.774;9.280;2022-10-16T03:36:52;16.70;99.90
56103;DHT22;41970;48.774;9.280;2022-10-16T03:39:18;16.70;99.90
56103;DHT22;41970;48.774;9.280;2022-10-16T03:41:44;16.60;99.90
56103;DHT22;41970;48.774;9.280;2022-10-16T03:44:12;16.70;99.90
56103;DHT22;41970;48.774;9.280;2022-10-16T03:46:37;16.70;99.90
56103;DHT22;41970;48.774;9.280;2022-10-16T03:49:03;16.70;99.90
56103;DHT22;41970;48.774;9.280;2022-10-16T03:51:32;16.70;99.90
56103;DHT22;41970;48.774;9.280;2022-10-16T03:53:58;16.70;99.90
56103;DHT22;41970;48.774;9.280;2022-10-16T03:56:24;16.60;99.90
56103;DHT22;41970;48.774;9.280;2022-10-16T03:58:50;16.60;99.90
56103;DHT22;41970;48.774;9.280;2022-10-16T04:01:16;16.50;99.90
56103;DHT22;41970;48.774;9.280;2022-10-16T04:03:41;16.40;99.90
56103;DHT22;41970;48.774;9.280;2022-10-16T04:06:07;16.20;99.90
56103;DHT22;41970;48.774;9.280;2022-10-16T04:08:34;16.10;99.90
56103;DHT22;41970;48.774;9.280;2022-10-16T04:11:02;16.10;99.90
56103;DHT22;41970;48.774;9.280;2022-10-16T04:13:28;16.20;99.90
56103;DHT22;41970;48.774;9.280;2022-10-16T04:15:54;16.30;99.90
56103;DHT22;41970;48.774;9.280;2022-10-16T04:18:20;16.30;99.90
56103;DHT22;41970;48.774;9.280;2022-10-16T04:20:46;16.30;99.90
56103;DHT22;41970;48.774;9.280;2022-10-16T04:23:11;16.30;99.90
56103;DHT22;41970;48.774;9.280;2022-10-16T04:25:37;16.20;99.90
56103;DHT22;41970;48.774;9.280;2022-10-16T04:28:03;16.20;99.90
56103;DHT22;41970;48.774;9.280;2022-10-16T04:30:29;16.20;99.90
56103;DHT22;41970;48.774;9.280;2022-10-16T04:32:55;16.10;99.90
56103;DHT22;41970;48.774;9.280;2022-10-16T04:35:21;16.20;99.90
56103;DHT22;41970;48.774;9.280;2022-10-16T04:37:47;16.20;99.90
56103;DHT22;41970;48.774;9.280;2022-10-16T04:40:13;16.10;99.90
56103;DHT22;41970;48.774;9.280;2022-10-16T04:42:40;16.10;99.90
56103;DHT22;41970;48.774;9.280;2022-10-16T04:45:06;16.10;99.90
56103;DHT22;41970;48.774;9.280;2022-10-16T04:47:33;16.10;99.90
56103;DHT22;41970;48.774;9.280;2022-10-16T04:49:59;16.00;99.90
56103;DHT22;41970;48.774;9.280;2022-10-16T04:52:26;16.00;99.90
56103;DHT22;41970;48.774;9.280;2022-10-16T04:54:53;15.90;99.90
56103;DHT22;41970;48.774;9.280;2022-10-16T04:57:22;15.90;99.90
56103;DHT22;41970;48.774;9.280;2022-10-16T04:59:48;16.00;99.90
56103;DHT22;41970;48.774;9.280;2022-10-16T05:02:14;16.00;99.90
56103;DHT22;41970;48.774;9.280;2022-10-16T05:04:40;15.90;99.90
56103;DHT22;41970;48.774;9.280;2022-10-16T05:07:06;15.90;99.90
56103;DHT22;41970;48.774;9.280;2022-10-16T05:09:31;15.90;99.90
56103;DHT22;41970;48.774;9.280;2022-10-16T05:11:57;15.90;99.90
56103;DHT22;41970;48.774;9.280;2022-10-16T05:14:23;15.90;99.90
56103;DHT22;41970;48.774;9.280;2022-10-16T05:16:49;16.00;99.90
56103;DHT22;41970;48.774;9.280;2022-10-16T05:19:15;15.90;99.90
56103;DHT22;41970;48.774;9.280;2022-10-16T05:21:40;15.90;99.90
56103;DHT22;41970;48.774;9.280;2022-10-16T05:24:06;15.70;99.90
56103;DHT22;41970;48.774;9.280;2022-10-16T05:26:32;15.60;99.90
56103;DHT22;41970;48.774;9.280;2022-10-16T05:28:58;15.60;99.90
56103;DHT22;41970;48.774;9.280;2022-10-16T05:31:24;15.60;99.90
56103;DHT22;41970;48.774;9.280;2022-10-16T05:33:49;15.70;99.90
56103;DHT22;41970;48.774;9.280;2022-10-16T05:36:15;15.70;99.90
56103;DHT22;41970;48.774;9.280;2022-10-16T05:38:41;15.80;99.90
56103;DHT22;41970;48.774;9.280;2022-10-16T05:41:07;15.80;99.90
56103;DHT22;41970;48.774;9.280;2022-10-16T05:43:33;15.80;99.90
56103;DHT22;41970;48.774;9.280;2022-10-16T05:46:06;15.80;99.90
56103;DHT22;41970;48.774;9.280;2022-10-16T05:48:32;15.80;99.90
56103;DHT22;41970;48.774;9.280;2022-10-16T05:51:04;15.70;99.90
56103;DHT22;41970;48.774;9.280;2022-10-16T05:53:34;15.70;99.90
56103;DHT22;41970;48.774;9.280;2022-10-16T05:56:00;15.60;99.90
56103;DHT22;41970;48.774;9.280;2022-10-16T05:58:29;15.60;99.90
56103;DHT22;41970;48.774;9.280;2022-10-16T06:01:05;15.60;99.90
56103;DHT22;41970;48.774;9.280;2022-10-16T06:03:32;15.60;99.90
56103;DHT22;41970;48.774;9.280;2022-10-16T06:05:58;15.60;99.90
56103;DHT22;41970;48.774;9.280;2022-10-16T06:08:24;15.70;99.90
56103;DHT22;41970;48.774;9.280;2022-10-16T06:11:04;15.70;99.90
56103;DHT22;41970;48.774;9.280;2022-10-16T06:13:30;15.70;99.90
56103;DHT22;41970;48.774;9.280;2022-10-16T06:15:58;15.70;99.90
56103;DHT22;41970;48.774;9.280;2022-10-16T06:18:25;15.80;99.90
56103;DHT22;41970;48.774;9.280;2022-10-16T06:20:51;15.80;99.90
56103;DHT22;41970;48.774;9.280;2022-10-16T06:23:17;15.80;99.90
56103;DHT22;41970;48.774;9.280;2022-10-16T06:25:43;15.90;99.90
56103;DHT22;41970;48.774;9.280;2022-10-16T06:28:09;16.00;99.90
56103;DHT22;41970;48.774;9.280;2022-10-16T06:30:35;16.00;99.90
56103;DHT22;41970;48.774;9.280;2022-10-16T06:33:00;16.00;99.90
56103;DHT22;41970;48.774;9.280;2022-10-16T06:35:26;15.90;99.90
56103;DHT22;41970;48.774;9.280;2022-10-16T06:37:53;15.80;99.90
56103;DHT22;41970;48.774;9.280;2022-10-16T06:40:22;15.90;99.90
56103;DHT22;41970;48.774;9.280;2022-10-16T06:42:47;16.00;99.90
56103;DHT22;41970;48.774;9.280;2022-10-16T06:45:13;16.10;99.90
56103;DHT22;41970;48.774;9.280;2022-10-16T06:47:39;16.20;99.90
56103;DHT22;41970;48.774;9.280;2022-10-16T06:50:05;16.20;99.90
56103;DHT22;41970;48.774;9.280;2022-10-16T06:52:33;16.40;99.90
56103;DHT22;41970;48.774;9.280;2022-10-16T06:54:59;16.40;99.90
56103;DHT22;41970;48.774;9.280;2022-10-16T06:57:26;16.50;99.90
56103;DHT22;41970;48.774;9.280;2022-10-16T06:59:51;16.50;99.90
56103;DHT22;41970;48.774;9.280;2022-10-16T07:02:17;16.60;99.90
56103;DHT22;41970;48.774;9.280;2022-10-16T07:04:43;16.60;99.90
56103;DHT22;41970;48.774;9.280;2022-10-16T07:07:09;16.60;99.90
56103;DHT22;41970;48.774;9.280;2022-10-16T07:09:35;16.70;99.90
56103;DHT22;41970;48.774;9.280;2022-10-16T07:12:01;16.70;99.90
56103;DHT22;41970;48.774;9.280;2022-10-16T07:14:27;16.70;99.90
56103;DHT22;41970;48.774;9.280;2022-10-16T07:16:53;16.70;99.90
56103;DHT22;41970;48.774;9.280;2022-10-16T07:19:19;16.80;99.90
56103;DHT22;41970;48.774;9.280;2022-10-16T07:21:44;16.80;99.90
56103;DHT22;41970;48.774;9.280;2022-10-16T07:24:13;16.90;99.90
56103;DHT22;41970;48.774;9.280;2022-10-16T07:26:39;16.90;99.90
56103;DHT22;41970;48.774;9.280;2022-10-16T07:29:08;17.00;99.90
56103;DHT22;41970;48.774;9.280;2022-10-16T07:31:36;17.00;99.90
56103;DHT22;41970;48.774;9.280;2022-10-16T07:34:03;17.10;99.90
56103;DHT22;41970;48.774;9.280;2022-10-16T07:36:29;17.10;99.90
56103;DHT22;41970;48.774;9.280;2022-10-16T07:38:54;17.20;99.90
56103;DHT22;41970;48.774;9.280;2022-10-16T07:41:20;17.20;99.90
56103;DHT22;41970;48.774;9.280;2022-10-16T07:43:51;17.20;99.90
56103;DHT22;41970;48.774;9.280;2022-10-16T07:46:18;17.00;99.90
56103;DHT22;41970;48.774;9.280;2022-10-16T07:48:45;16.80;99.90
56103;DHT22;41970;48.774;9.280;2022-10-16T07:51:14;16.60;99.90
56103;DHT22;41970;48.774;9.280;2022-10-16T07:53:40;16.50;99.90
56103;DHT22;41970;48.774;9.280;2022-10-16T07:56:07;16.50;99.90
56103;DHT22;41970;48.774;9.280;2022-10-16T07:58:34;16.40;99.90
56103;DHT22;41970;48.774;9.280;2022-10-16T08:01:07;16.60;99.90
56103;DHT22;41970;48.774;9.280;2022-10-16T08:03:33;16.80;99.90
56103;DHT22;41970;48.774;9.280;2022-10-16T08:05:59;17.00;99.90
56103;DHT22;41970;48.774;9.280;2022-10-16T08:08:25;17.10;99.90
56103;DHT22;41970;48.774;9.280;2022-10-16T08:10:52;17.20;99.90
56103;DHT22;41970;48.774;9.280;2022-10-16T08:13:21;17.30;99.90
56103;DHT22;41970;48.774;9.280;2022-10-16T08:15:47;17.30;99.90
56103;DHT22;41970;48.774;9.280;2022-10-16T08:18:14;17.30;99.90
56103;DHT22;41970;48.774;9.280;2022-10-16T08:20:42;17.30;99.90
56103;DHT22;41970;48.774;9.280;2022-10-16T08:23:11;17.20;99.90
56103;DHT22;41970;48.774;9.280;2022-10-16T08:25:39;17.10;99.90
56103;DHT22;41970;48.774;9.280;2022-10-16T08:28:06;17.00;99.90
56103;DHT22;41970;48.774;9.280;2022-10-16T08:30:33;17.00;99.90
56103;DHT22;41970;48.774;9.280;2022-10-16T08:33:00;17.20;99.90
56103;DHT22;41970;48.774;9.280;2022-10-16T08:35:26;17.90;99.90
56103;DHT22;41970;48.774;9.280;2022-10-16T08:37:51;18.40;99.90
56103;DHT22;41970;48.774;9.280;2022-10-16T08:40:20;18.50;99.90
56103;DHT22;41970;48.774;9.280;2022-10-16T08:48:18;19.00;99.90
56103;DHT22;41970;48.774;9.280;2022-10-16T08:50:45;18.80;99.90
56103;DHT22;41970;48.774;9.280;2022-10-16T08:53:38;18.50;99.90
56103;DHT22;41970;48.774;9.280;2022-10-16T08:56:06;18.30;99.90
56103;DHT22;41970;48.774;9.280;2022-10-16T08:58:32;18.30;99.90
56103;DHT22;41970;48.774;9.280;2022-10-16T09:01:03;18.10;99.90
56103;DHT22;41970;48.774;9.280;2022-10-16T09:03:57;18.00;99.90
56103;DHT22;41970;48.774;9.280;2022-10-16T09:06:46;17.90;99.90
56103;DHT22;41970;48.774;9.280;2022-10-16T09:14:50;18.20;99.90
56103;DHT22;41970;48.774;9.280;2022-10-16T09:22:45;18.10;99.90
56103;DHT22;41970;48.774;9.280;2022-10-16T09:25:20;18.10;99.90
56103;DHT22;41970;48.774;9.280;2022-10-16T09:27:48;18.10;99.90
56103;DHT22;41970;48.774;9.280;2022-10-16T09:30:16;18.30;99.90
56103;DHT22;41970;48.774;9.280;2022-10-16T09:32:44;18.60;99.90
56103;DHT22;41970;48.774;9.280;2022-10-16T09:35:22;18.60;99.90
56103;DHT22;41970;48.774;9.280;2022-10-16T09:37:51;18.60;99.90
56103;DHT22;41970;48.774;9.280;2022-10-16T09:40:30;18.50;99.90
56103;DHT22;41970;48.774;9.280;2022-10-16T09:45:39;18.50;99.90
56103;DHT22;41970;48.774;9.280;2022-10-16T09:48:12;18.70;99.90
56103;DHT22;41970;48.774;9.280;2022-10-16T09:50:38;18.70;99.90
56103;DHT22;41970;48.774;9.280;2022-10-16T09:53:10;18.70;99.90
56103;DHT22;41970;48.774;9.280;2022-10-16T09:55:47;18.70;99.90
56103;DHT22;41970;48.774;9.280;2022-10-16T09:58:13;18.80;99.90
56103;DHT22;41970;48.774;9.280;2022-10-16T10:00:42;19.00;99.90
56103;DHT22;41970;48.774;9.280;2022-10-16T10:03:37;19.10;99.90
56103;DHT22;41970;48.774;9.280;2022-10-16T10:06:14;19.20;99.90
56103;DHT22;41970;48.774;9.280;2022-10-16T10:09:06;19.20;99.90
56103;DHT22;41970;48.774;9.280;2022-10-16T10:11:42;19.30;99.90
56103;DHT22;41970;48.774;9.280;2022-10-16T10:19:38;19.50;99.90
56103;DHT22;41970;48.774;9.280;2022-10-16T10:27:51;19.70;99.90
56103;DHT22;41970;48.774;9.280;2022-10-16T10:30:22;19.70;99.90
56103;DHT22;41970;48.774;9.280;2022-10-16T10:46:41;20.30;99.90
56103;DHT22;41970;48.774;9.280;2022-10-16T10:49:24;20.50;99.90
56103;DHT22;41970;48.774;9.280;2022-10-16T10:55:08;20.80;99.90
56103;DHT22;41970;48.774;9.280;2022-10-16T10:58:08;21.10;99.90
56103;DHT22;41970;48.774;9.280;2022-10-16T11:06:32;21.50;99.90
56103;DHT22;41970;48.774;9.280;2022-10-16T11:09:07;21.70;99.90
56103;DHT22;41970;48.774;9.280;2022-10-16T11:14:10;21.60;99.90
56103;DHT22;41970;48.774;9.280;2022-10-16T11:16:51;21.80;99.90
56103;DHT22;41970;48.774;9.280;2022-10-16T11:19:26;22.10;99.90
56103;DHT22;41970;48.774;9.280;2022-10-16T11:22:22;22.10;99.90
56103;DHT22;41970;48.774;9.280;2022-10-16T11:24:54;22.30;99.90
56103;DHT22;41970;48.774;9.280;2022-10-16T11:30:12;22.50;99.90
56103;DHT22;41970;48.774;9.280;2022-10-16T11:36:27;22.30;99.90
56103;DHT22;41970;48.774;9.280;2022-10-16T11:41:51;22.20;99.90
56103;DHT22;41970;48.774;9.280;2022-10-16T11:55:37;22.60;99.90
56103;DHT22;41970;48.774;9.280;2022-10-16T11:58:09;22.70;99.90
56103;DHT22;41970;48.774;9.280;2022-10-16T12:00:58;22.70;99.90
56103;DHT22;41970;48.774;9.280;2022-10-16T12:08:44;22.60;99.90
56103;DHT22;41970;48.774;9.280;2022-10-16T12:16:51;23.00;99.60
56103;DHT22;41970;48.774;9.280;2022-10-16T12:19:18;23.00;99.90
56103;DHT22;41970;48.774;9.280;2022-10-16T12:21:45;23.10;99.40
56103;DHT22;41970;48.774;9.280;2022-10-16T12:24:35;23.30;99.20
56103;DHT22;41970;48.774;9.280;2022-10-16T12:27:04;23.10;98.50
56103;DHT22;41970;48.774;9.280;2022-10-16T12:29:39;23.20;98.90
56103;DHT22;41970;48.774;9.280;2022-10-16T12:32:26;23.30;98.50
56103;DHT22;41970;48.774;9.280;2022-10-16T12:34:52;23.40;98.70
56103;DHT22;41970;48.774;9.280;2022-10-16T12:37:25;23.50;98.30
56103;DHT22;41970;48.774;9.280;2022-10-16T12:39:53;23.30;97.80
56103;DHT22;41970;48.774;9.280;2022-10-16T12:44:52;23.40;96.70
56103;DHT22;41970;48.774;9.280;2022-10-16T12:47:21;23.70;96.60
56103;DHT22;41970;48.774;9.280;2022-10-16T12:49:53;23.80;96.80
56103;DHT22;41970;48.774;9.280;2022-10-16T12:52:38;23.90;96.70
56103;DHT22;41970;48.774;9.280;2022-10-16T12:55:16;23.90;96.20
56103;DHT22;41970;48.774;9.280;2022-10-16T13:06:13;23.80;96.30
56103;DHT22;41970;48.774;9.280;2022-10-16T13:09:10;23.90;96.50
56103;DHT22;41970;48.774;9.280;2022-10-16T13:14:57;23.90;98.30
56103;DHT22;41970;48.774;9.280;2022-10-16T13:17:45;23.80;99.10
56103;DHT22;41970;48.774;9.280;2022-10-16T13:20:32;23.80;99.10
56103;DHT22;41970;48.774;9.280;2022-10-16T13:23:17;23.80;98.00
56103;DHT22;41970;48.774;9.280;2022-10-16T13:28:27;23.70;97.70
56103;DHT22;41970;48.774;9.280;2022-10-16T13:30:57;23.70;97.40
56103;DHT22;41970;48.774;9.280;2022-10-16T13:33:30;23.70;97.40
56103;DHT22;41970;48.774;9.280;2022-10-16T13:36:00;23.70;97.80
56103;DHT22;41970;48.774;9.280;2022-10-16T13:38:30;23.70;98.00
56103;DHT22;41970;48.774;9.280;2022-10-16T13:40:58;23.70;97.80
56103;DHT22;41970;48.774;9.280;2022-10-16T13:43:39;23.80;97.60
56103;DHT22;41970;48.774;9.280;2022-10-16T13:48:42;23.90;97.20
56103;DHT22;41970;48.774;9.280;2022-10-16T13:51:15;23.80;97.00
56103;DHT22;41970;48.774;9.280;2022-10-16T13:53:45;23.80;97.00
56103;DHT22;41970;48.774;9.280;2022-10-16T13:56:16;23.80;97.80
56103;DHT22;41970;48.774;9.280;2022-10-16T13:58:43;23.60;98.40
56103;DHT22;41970;48.774;9.280;2022-10-16T14:01:19;23.60;98.40
56103;DHT22;41970;48.774;9.280;2022-10-16T14:03:46;23.60;99.10
56103;DHT22;41970;48.774;9.280;2022-10-16T14:06:22;23.60;99.10
56103;DHT22;41970;48.774;9.280;2022-10-16T14:11:49;23.50;99.40
56103;DHT22;41970;48.774;9.280;2022-10-16T14:14:18;23.60;99.40
56103;DHT22;41970;48.774;9.280;2022-10-16T14:16:44;23.50;99.30
56103;DHT22;41970;48.774;9.280;2022-10-16T14:19:27;23.50;99.60
56103;DHT22;41970;48.774;9.280;2022-10-16T14:21:54;23.50;99.90
56103;DHT22;41970;48.774;9.280;2022-10-16T14:24:31;23.50;99.90
56103;DHT22;41970;48.774;9.280;2022-10-16T14:26:58;23.50;99.90
56103;DHT22;41970;48.774;9.280;2022-10-16T14:29:26;23.60;99.90
56103;DHT22;41970;48.774;9.280;2022-10-16T14:32:00;23.60;99.90
56103;DHT22;41970;48.774;9.280;2022-10-16T14:34:30;23.50;99.90
56103;DHT22;41970;48.774;9.280;2022-10-16T14:36:59;23.50;99.90
56103;DHT22;41970;48.774;9.280;2022-10-16T14:39:28;23.50;99.90
56103;DHT22;41970;48.774;9.280;2022-10-16T14:41:57;23.50;99.90
56103;DHT22;41970;48.774;9.280;2022-10-16T14:44:31;23.30;99.90
56103;DHT22;41970;48.774;9.280;2022-10-16T14:47:06;23.30;99.90
56103;DHT22;41970;48.774;9.280;2022-10-16T14:49:32;23.30;99.90
56103;DHT22;41970;48.774;9.280;2022-10-16T14:51:58;23.30;99.90
56103;DHT22;41970;48.774;9.280;2022-10-16T14:54:24;23.30;99.90
56103;DHT22;41970;48.774;9.280;2022-10-16T14:56:55;23.30;99.90
56103;DHT22;41970;48.774;9.280;2022-10-16T14:59:28;23.30;99.90
56103;DHT22;41970;48.774;9.280;2022-10-16T15:01:55;23.10;99.90
56103;DHT22;41970;48.774;9.280;2022-10-16T15:04:22;22.90;99.90
56103;DHT22;41970;48.774;9.280;2022-10-16T15:06:48;23.00;99.90
56103;DHT22;41970;48.774;9.280;2022-10-16T15:09:14;23.00;99.90
56103;DHT22;41970;48.774;9.280;2022-10-16T15:11:40;23.10;99.90
56103;DHT22;41970;48.774;9.280;2022-10-16T15:14:11;23.00;99.90
56103;DHT22;41970;48.774;9.280;2022-10-16T15:16:37;22.80;99.90
56103;DHT22;41970;48.774;9.280;2022-10-16T15:19:03;22.80;99.90
56103;DHT22;41970;48.774;9.280;2022-10-16T15:21:31;22.90;99.90
56103;DHT22;41970;48.774;9.280;2022-10-16T15:23:58;23.00;99.90
56103;DHT22;41970;48.774;9.280;2022-10-16T15:26:25;23.00;99.90
56103;DHT22;41970;48.774;9.280;2022-10-16T15:28:51;22.90;99.90
56103;DHT22;41970;48.774;9.280;2022-10-16T15:31:18;22.90;99.90
56103;DHT22;41970;48.774;9.280;2022-10-16T15:33:45;22.90;99.90
56103;DHT22;41970;48.774;9.280;2022-10-16T15:36:16;22.90;99.90
56103;DHT22;41970;48.774;9.280;2022-10-16T15:38:42;22.90;99.90
56103;DHT22;41970;48.774;9.280;2022-10-16T15:41:09;22.70;99.90
56103;DHT22;41970;48.774;9.280;2022-10-16T15:43:35;22.60;99.90
56103;DHT22;41970;48.774;9.280;2022-10-16T15:46:04;22.50;99.90
56103;DHT22;41970;48.774;9.280;2022-10-16T15:48:32;22.50;99.90
56103;DHT22;41970;48.774;9.280;2022-10-16T15:51:05;22.50;99.90
56103;DHT22;41970;48.774;9.280;2022-10-16T15:53:31;22.50;99.90
56103;DHT22;41970;48.774;9.280;2022-10-16T15:55:57;22.20;99.90
56103;DHT22;41970;48.774;9.280;2022-10-16T15:58:23;22.10;99.90
56103;DHT22;41970;48.774;9.280;2022-10-16T16:01:00;22.00;99.90
56103;DHT22;41970;48.774;9.280;2022-10-16T16:03:27;21.80;99.90
56103;DHT22;41970;48.774;9.280;2022-10-16T16:05:54;21.50;99.90
56103;DHT22;41970;48.774;9.280;2022-10-16T16:08:20;21.20;99.90
56103;DHT22;41970;48.774;9.280;2022-10-16T16:11:04;21.00;99.90
56103;DHT22;41970;48.774;9.280;2022-10-16T16:13:30;20.80;99.90
56103;DHT22;41970;48.774;9.280;2022-10-16T16:15:56;20.70;99.90
56103;DHT22;41970;48.774;9.280;2022-10-16T16:18:22;20.60;99.90
56103;DHT22;41970;48.774;9.280;2022-10-16T16:20:50;20.40;99.90
56103;DHT22;41970;48.774;9.280;2022-10-16T16:23:19;20.30;99.90
56103;DHT22;41970;48.774;9.280;2022-10-16T16:25:45;20.30;99.90
56103;DHT22;41970;48.774;9.280;2022-10-16T16:28:27;20.40;99.90
56103;DHT22;41970;48.774;9.280;2022-10-16T16:30:53;20.60;99.90
56103;DHT22;41970;48.774;9.280;2022-10-16T16:33:19;20.70;99.90
56103;DHT22;41970;48.774;9.280;2022-10-16T16:35:45;20.80;99.90
56103;DHT22;41970;48.774;9.280;2022-10-16T16:38:10;20.70;99.90
56103;DHT22;41970;48.774;9.280;2022-10-16T16:40:36;20.60;99.90
56103;DHT22;41970;48.774;9.280;2022-10-16T16:43:02;20.60;99.90
56103;DHT22;41970;48.774;9.280;2022-10-16T16:45:29;20.70;99.90
56103;DHT22;41970;48.774;9.280;2022-10-16T16:47:55;20.80;99.90
56103;DHT22;41970;48.774;9.280;2022-10-16T16:50:21;20.70;99.90
56103;DHT22;41970;48.774;9.280;2022-10-16T16:52:47;20.60;99.90
56103;DHT22;41970;48.774;9.280;2022-10-16T16:55:13;20.50;99.90
56103;DHT22;41970;48.774;9.280;2022-10-16T16:57:38;20.40;99.90
56103;DHT22;41970;48.774;9.280;2022-10-16T17:00:05;20.30;99.90
56103;DHT22;41970;48.774;9.280;2022-10-16T17:02:31;20.20;99.90
56103;DHT22;41970;48.774;9.280;2022-10-16T17:04:58;20.20;99.90
56103;DHT22;41970;48.774;9.280;2022-10-16T17:07:24;20.20;99.90
56103;DHT22;41970;48.774;9.280;2022-10-16T17:09:51;20.20;99.90
56103;DHT22;41970;48.774;9.280;2022-10-16T17:12:17;20.10;99.90
56103;DHT22;41970;48.774;9.280;2022-10-16T17:14:42;20.00;99.90
56103;DHT22;41970;48.774;9.280;2022-10-16T17:17:08;20.00;99.90
56103;DHT22;41970;48.774;9.280;2022-10-16T17:19:34;20.00;99.90
56103;DHT22;41970;48.774;9.280;2022-10-16T17:22:00;19.90;99.90
56103;DHT22;41970;48.774;9.280;2022-10-16T17:24:28;19.80;99.90
56103;DHT22;41970;48.774;9.280;2022-10-16T17:26:54;19.70;99.90
56103;DHT22;41970;48.774;9.280;2022-10-16T17:29:20;19.40;99.90
56103;DHT22;41970;48.774;9.280;2022-10-16T17:31:46;19.40;99.90
56103;DHT22;41970;48.774;9.280;2022-10-16T17:34:17;19.40;99.90
56103;DHT22;41970;48.774;9.280;2022-10-16T17:36:43;19.30;99.90
56103;DHT22;41970;48.774;9.280;2022-10-16T17:39:12;19.30;99.90
56103;DHT22;41970;48.774;9.280;2022-10-16T17:41:39;19.20;99.90
56103;DHT22;41970;48.774;9.280;2022-10-16T17:44:05;19.00;99.90